Big Glory — H9IF — position and weather

sailwx.info

Track history (hours):
 
Tides and Currents Weather Stations Pressure Air Temp Water Temp Dewpoint Dewpoint Depression Visibility Wind Speed Wind Dir Waves Ship Positions

Big Glory

Last reported at 2016-Jun-12 02:30 UTC. Time now 2016-Jun-26 01:05 UTC.
Position N 34°32' E 139°06'.
Warning: this ship's position is 13 days out of date.

Length 190 m; draft 7.2 m.

Type: Ship. MMSI: 354285000.

Date/timePositionNaut miles runAvg speedWind from/ knotsBaromVisibWave heightAir tempDewpointWater temp
2016-Jun-12 02:30N 34°32' E 139°06'1512.6
2016-Jun-12 01:16N 34°37' E 139°24'912.2
2016-Jun-12 00:33N 34°39' E 139°34'1212.1
2016-Jun-11 23:33N 34°43' E 139°48'1211.7
2016-Jun-11 22:34N 34°47' E 140°01'1212.3
2016-Jun-11 21:33N 34°55' E 140°13'1312.1
2016-Jun-11 20:31N 35°02' E 140°25'1111.5
2016-Jun-11 19:31N 35°09' E 140°36'1211.8
2016-Jun-11 18:30N 35°19' E 140°45'1211.3
2016-Jun-11 17:28N 35°29' E 140°53'1010.9
2016-Jun-11 16:33N 35°37' E 140°59'1110.4
2016-Jun-11 15:33N 35°47' E 141°00'1111.5
2016-Jun-11 14:33N 35°59' E 140°59'1211.7
2016-Jun-11 13:34N 36°10' E 140°58'1211.8
2016-Jun-11 12:34N 36°22' E 140°57'1111.5
2016-Jun-11 11:34N 36°34' E 140°55'1110.9
2016-Jun-11 10:34N 36°44' E 140°54'1110.5
2016-Jun-11 09:34N 36°55' E 140°53'  
Track history (hours):
 
Tides and Currents Weather Stations Pressure Air Temp Water Temp Dewpoint Dewpoint Depression Visibility Wind Speed Wind Dir Waves Ship Positions

Big Glory

Last reported at 2016-Jun-12 02:30 UTC. Time now 2016-Jun-26 01:05 UTC.
Position N 34°32' E 139°06'.
Warning: this ship's position is 13 days out of date.

Length 190 m; draft 7.2 m.

Type: Ship. MMSI: 354285000.

Date/timePositionNaut miles runAvg speedWind from/ knotsBaromVisibWave heightAir tempDewpointWater temp
2016-Jun-12 02:30N 34°32' E 139°06'1512.6
2016-Jun-12 01:16N 34°37' E 139°24'912.2
2016-Jun-12 00:33N 34°39' E 139°34'1212.1
2016-Jun-11 23:33N 34°43' E 139°48'1211.7
2016-Jun-11 22:34N 34°47' E 140°01'1212.3
2016-Jun-11 21:33N 34°55' E 140°13'1312.1
2016-Jun-11 20:31N 35°02' E 140°25'1111.5
2016-Jun-11 19:31N 35°09' E 140°36'1211.8
2016-Jun-11 18:30N 35°19' E 140°45'1211.3
2016-Jun-11 17:28N 35°29' E 140°53'1010.9
2016-Jun-11 16:33N 35°37' E 140°59'1110.4
2016-Jun-11 15:33N 35°47' E 141°00'1111.5
2016-Jun-11 14:33N 35°59' E 140°59'1211.7
2016-Jun-11 13:34N 36°10' E 140°58'1211.8
2016-Jun-11 12:34N 36°22' E 140°57'1111.5
2016-Jun-11 11:34N 36°34' E 140°55'1110.9
2016-Jun-11 10:34N 36°44' E 140°54'1110.5
2016-Jun-11 09:34N 36°55' E 140°53'  

Dump ship's entire track history